sensor_id;sensor_type;location;lat;lon;timestamp;pressure;altitude;pressure_sealevel;temperature;humidity
45941;BME280;31858;46.008;8.978;2022-07-23T00:09:57;94615.16;;;26.91;49.26
45941;BME280;31858;46.008;8.978;2022-07-23T00:20:00;94577.38;;;26.90;49.01
45941;BME280;31858;46.008;8.978;2022-07-23T00:30:03;94606.06;;;26.80;50.33
45941;BME280;31858;46.008;8.978;2022-07-23T00:40:07;94735.09;;;26.84;56.63
45941;BME280;31858;46.008;8.978;2022-07-23T00:50:10;94839.09;;;25.28;49.45
45941;BME280;31858;46.008;8.978;2022-07-23T01:00:14;94964.22;;;21.16;87.56
45941;BME280;31858;46.008;8.978;2022-07-23T01:10:16;94818.00;;;18.80;100.00
45941;BME280;31858;46.008;8.978;2022-07-23T01:20:35;94753.34;;;18.53;100.00
45941;BME280;31858;46.008;8.978;2022-07-23T01:30:38;94649.47;;;18.81;100.00
45941;BME280;31858;46.008;8.978;2022-07-23T01:40:39;94682.69;;;18.78;100.00
45941;BME280;31858;46.008;8.978;2022-07-23T01:50:42;94709.75;;;18.74;100.00
45941;BME280;31858;46.008;8.978;2022-07-23T02:00:44;94710.72;;;18.08;100.00
45941;BME280;31858;46.008;8.978;2022-07-23T02:10:47;94725.09;;;18.02;100.00
45941;BME280;31858;46.008;8.978;2022-07-23T02:20:51;94739.94;;;17.90;100.00
45941;BME280;31858;46.008;8.978;2022-07-23T02:30:54;94738.16;;;18.03;100.00
45941;BME280;31858;46.008;8.978;2022-07-23T02:40:56;94738.16;;;18.03;100.00
45941;BME280;31858;46.008;8.978;2022-07-23T02:50:59;94725.63;;;18.33;100.00
45941;BME280;31858;46.008;8.978;2022-07-23T03:01:01;94706.94;;;18.62;100.00
45941;BME280;31858;46.008;8.978;2022-07-23T03:11:04;94701.59;;;18.58;100.00
45941;BME280;31858;46.008;8.978;2022-07-23T03:21:08;94697.78;;;18.75;100.00
45941;BME280;31858;46.008;8.978;2022-07-23T03:31:11;94718.38;;;18.85;100.00
45941;BME280;31858;46.008;8.978;2022-07-23T03:41:13;94701.69;;;18.90;100.00
45941;BME280;31858;46.008;8.978;2022-07-23T03:51:16;94689.72;;;19.24;100.00
45941;BME280;31858;46.008;8.978;2022-07-23T04:01:17;94682.69;;;19.43;100.00
45941;BME280;31858;46.008;8.978;2022-07-23T04:11:20;94704.19;;;19.79;100.00
45941;BME280;31858;46.008;8.978;2022-07-23T04:21:22;94709.59;;;19.79;100.00
45941;BME280;31858;46.008;8.978;2022-07-23T04:31:25;94708.94;;;19.59;100.00
45941;BME280;31858;46.008;8.978;2022-07-23T04:41:27;94692.06;;;19.54;100.00
45941;BME280;31858;46.008;8.978;2022-07-23T04:51:30;94710.81;;;19.62;100.00
45941;BME280;31858;46.008;8.978;2022-07-23T05:01:32;94716.88;;;19.66;100.00
45941;BME280;31858;46.008;8.978;2022-07-23T05:11:35;94726.72;;;19.88;100.00
45941;BME280;31858;46.008;8.978;2022-07-23T05:21:36;94746.38;;;20.05;100.00
45941;BME280;31858;46.008;8.978;2022-07-23T05:31:39;94736.22;;;20.09;100.00
45941;BME280;31858;46.008;8.978;2022-07-23T05:41:41;94746.22;;;19.96;100.00
45941;BME280;31858;46.008;8.978;2022-07-23T05:51:44;94728.09;;;20.09;100.00
45941;BME280;31858;46.008;8.978;2022-07-23T06:01:46;94731.41;;;20.30;100.00
45941;BME280;31858;46.008;8.978;2022-07-23T06:11:49;94727.16;;;20.16;100.00
45941;BME280;31858;46.008;8.978;2022-07-23T06:21:50;94709.75;;;20.59;100.00
45941;BME280;31858;46.008;8.978;2022-07-23T06:31:53;94723.72;;;20.57;100.00
45941;BME280;31858;46.008;8.978;2022-07-23T06:41:55;94730.00;;;21.17;100.00
45941;BME280;31858;46.008;8.978;2022-07-23T06:51:58;94733.03;;;21.58;100.00
45941;BME280;31858;46.008;8.978;2022-07-23T07:02:00;94734.59;;;21.33;100.00
45941;BME280;31858;46.008;8.978;2022-07-23T07:12:03;94742.16;;;21.51;100.00
45941;BME280;31858;46.008;8.978;2022-07-23T07:22:05;94739.22;;;21.58;100.00
45941;BME280;31858;46.008;8.978;2022-07-23T07:32:08;94747.19;;;21.74;100.00
45941;BME280;31858;46.008;8.978;2022-07-23T07:42:10;94742.94;;;21.86;100.00
45941;BME280;31858;46.008;8.978;2022-07-23T07:52:13;94729.88;;;22.06;100.00
45941;BME280;31858;46.008;8.978;2022-07-23T08:02:14;94743.50;;;22.16;100.00
45941;BME280;31858;46.008;8.978;2022-07-23T08:12:17;94735.03;;;22.35;100.00
45941;BME280;31858;46.008;8.978;2022-07-23T08:22:19;94739.16;;;22.40;100.00
45941;BME280;31858;46.008;8.978;2022-07-23T08:32:22;94730.97;;;22.84;100.00
45941;BME280;31858;46.008;8.978;2022-07-23T08:42:24;94743.28;;;22.75;100.00
45941;BME280;31858;46.008;8.978;2022-07-23T08:52:30;94744.97;;;23.04;100.00
45941;BME280;31858;46.008;8.978;2022-07-23T09:02:38;94749.59;;;23.25;100.00
45941;BME280;31858;46.008;8.978;2022-07-23T09:12:42;94740.25;;;23.44;100.00
45941;BME280;31858;46.008;8.978;2022-07-23T09:22:44;94737.63;;;23.72;100.00
45941;BME280;31858;46.008;8.978;2022-07-23T09:33:09;94740.97;;;23.85;100.00
45941;BME280;31858;46.008;8.978;2022-07-23T09:43:12;94737.19;;;23.83;100.00
45941;BME280;31858;46.008;8.978;2022-07-23T09:53:23;94727.66;;;23.96;100.00
45941;BME280;31858;46.008;8.978;2022-07-23T10:03:25;94730.84;;;24.22;100.00
45941;BME280;31858;46.008;8.978;2022-07-23T10:13:29;94725.56;;;24.55;100.00
45941;BME280;31858;46.008;8.978;2022-07-23T10:24:01;94727.09;;;24.89;100.00
45941;BME280;31858;46.008;8.978;2022-07-23T10:34:14;94712.38;;;25.05;100.00
45941;BME280;31858;46.008;8.978;2022-07-23T10:44:21;94699.63;;;25.11;100.00
45941;BME280;31858;46.008;8.978;2022-07-23T10:54:25;94691.00;;;25.13;100.00
45941;BME280;31858;46.008;8.978;2022-07-23T11:04:47;94706.94;;;25.38;100.00
45941;BME280;31858;46.008;8.978;2022-07-23T11:15:00;94698.66;;;25.80;100.00
45941;BME280;31858;46.008;8.978;2022-07-23T11:25:03;94693.06;;;26.13;100.00
45941;BME280;31858;46.008;8.978;2022-07-23T11:35:27;94687.63;;;26.13;100.00
45941;BME280;31858;46.008;8.978;2022-07-23T11:45:33;94674.16;;;26.24;100.00
45941;BME280;31858;46.008;8.978;2022-07-23T11:55:37;94667.78;;;26.72;100.00
45941;BME280;31858;46.008;8.978;2022-07-23T12:05:39;94668.06;;;27.03;100.00
45941;BME280;31858;46.008;8.978;2022-07-23T12:15:45;94656.06;;;27.36;100.00
45941;BME280;31858;46.008;8.978;2022-07-23T12:25:49;94659.22;;;27.28;100.00
45941;BME280;31858;46.008;8.978;2022-07-23T12:35:54;94643.06;;;27.30;100.00
45941;BME280;31858;46.008;8.978;2022-07-23T12:45:57;94639.38;;;27.54;100.00
45941;BME280;31858;46.008;8.978;2022-07-23T12:56:07;94643.63;;;27.96;100.00
45941;BME280;31858;46.008;8.978;2022-07-23T13:06:10;94633.56;;;28.33;96.77
45941;BME280;31858;46.008;8.978;2022-07-23T13:16:13;94630.56;;;28.63;91.01
45941;BME280;31858;46.008;8.978;2022-07-23T13:26:15;94621.63;;;28.68;82.59
45941;BME280;31858;46.008;8.978;2022-07-23T13:36:18;94608.97;;;28.76;83.38
45941;BME280;31858;46.008;8.978;2022-07-23T13:46:20;94610.59;;;28.88;88.02
45941;BME280;31858;46.008;8.978;2022-07-23T13:56:23;94608.50;;;28.77;80.11
45941;BME280;31858;46.008;8.978;2022-07-23T14:06:24;94600.84;;;28.87;82.46
45941;BME280;31858;46.008;8.978;2022-07-23T14:16:27;94581.47;;;28.96;78.55
45941;BME280;31858;46.008;8.978;2022-07-23T14:26:29;94580.41;;;28.88;77.64
45941;BME280;31858;46.008;8.978;2022-07-23T14:36:32;94581.75;;;28.67;77.77
45941;BME280;31858;46.008;8.978;2022-07-23T14:46:34;94568.16;;;28.46;76.53
45941;BME280;31858;46.008;8.978;2022-07-23T14:56:37;94555.44;;;28.43;77.96
45941;BME280;31858;46.008;8.978;2022-07-23T15:06:39;94565.44;;;28.46;75.87
45941;BME280;31858;46.008;8.978;2022-07-23T15:16:42;94559.34;;;28.31;73.50
45941;BME280;31858;46.008;8.978;2022-07-23T15:26:44;94562.28;;;28.28;87.47
45941;BME280;31858;46.008;8.978;2022-07-23T15:36:47;94557.22;;;28.20;88.58
45941;BME280;31858;46.008;8.978;2022-07-23T15:46:48;94542.03;;;27.93;83.56
45941;BME280;31858;46.008;8.978;2022-07-23T15:56:52;94529.75;;;27.83;82.07
45941;BME280;31858;46.008;8.978;2022-07-23T16:06:53;94528.41;;;27.53;79.50
45941;BME280;31858;46.008;8.978;2022-07-23T16:16:56;94529.09;;;27.48;79.58
45941;BME280;31858;46.008;8.978;2022-07-23T16:26:58;94535.00;;;27.61;77.83
45941;BME280;31858;46.008;8.978;2022-07-23T16:37:01;94521.75;;;28.06;76.64
45941;BME280;31858;46.008;8.978;2022-07-23T16:47:03;94517.69;;;28.64;73.69
45941;BME280;31858;46.008;8.978;2022-07-23T16:57:06;94518.13;;;28.94;73.28
45941;BME280;31858;46.008;8.978;2022-07-23T17:07:08;94508.47;;;29.10;71.95
45941;BME280;31858;46.008;8.978;2022-07-23T17:17:11;94507.94;;;29.00;69.98
45941;BME280;31858;46.008;8.978;2022-07-23T17:27:13;94506.41;;;28.94;71.77
45941;BME280;31858;46.008;8.978;2022-07-23T17:37:16;94510.88;;;28.91;71.92
45941;BME280;31858;46.008;8.978;2022-07-23T17:47:18;94506.63;;;28.84;70.36
45941;BME280;31858;46.008;8.978;2022-07-23T17:57:22;94515.97;;;28.67;72.16
45941;BME280;31858;46.008;8.978;2022-07-23T18:07:23;94523.91;;;28.65;73.15
45941;BME280;31858;46.008;8.978;2022-07-23T18:17:27;94530.78;;;28.43;78.33
45941;BME280;31858;46.008;8.978;2022-07-23T18:27:28;94534.94;;;28.33;78.53
45941;BME280;31858;46.008;8.978;2022-07-23T18:37:32;94541.00;;;28.17;80.80
45941;BME280;31858;46.008;8.978;2022-07-23T18:47:35;94552.84;;;28.03;77.62
45941;BME280;31858;46.008;8.978;2022-07-23T18:57:38;94549.63;;;27.38;75.65
45941;BME280;31858;46.008;8.978;2022-07-23T19:07:40;94562.16;;;27.04;75.06
45941;BME280;31858;46.008;8.978;2022-07-23T19:17:43;94577.06;;;26.68;77.02
45941;BME280;31858;46.008;8.978;2022-07-23T19:27:45;94585.63;;;26.31;80.74
45941;BME280;31858;46.008;8.978;2022-07-23T19:37:48;94603.06;;;26.19;81.92
45941;BME280;31858;46.008;8.978;2022-07-23T19:47:49;94611.44;;;25.86;85.38
45941;BME280;31858;46.008;8.978;2022-07-23T19:57:52;94623.38;;;26.03;86.69
45941;BME280;31858;46.008;8.978;2022-07-23T20:07:55;94635.72;;;25.84;95.50
45941;BME280;31858;46.008;8.978;2022-07-23T20:17:58;94624.59;;;25.73;93.66
45941;BME280;31858;46.008;8.978;2022-07-23T20:28:01;94622.25;;;25.56;91.04
45941;BME280;31858;46.008;8.978;2022-07-23T20:38:04;94638.81;;;25.53;90.43
45941;BME280;31858;46.008;8.978;2022-07-23T20:48:06;94628.41;;;25.42;87.40
45941;BME280;31858;46.008;8.978;2022-07-23T20:58:09;94641.94;;;25.36;84.75
45941;BME280;31858;46.008;8.978;2022-07-23T21:08:11;94653.13;;;25.39;82.65
45941;BME280;31858;46.008;8.978;2022-07-23T21:18:14;94655.03;;;25.23;83.11
45941;BME280;31858;46.008;8.978;2022-07-23T21:28:16;94658.53;;;25.48;77.82
45941;BME280;31858;46.008;8.978;2022-07-23T21:38:19;94658.53;;;25.48;73.88
45941;BME280;31858;46.008;8.978;2022-07-23T21:48:21;94670.19;;;25.24;75.18
45941;BME280;31858;46.008;8.978;2022-07-23T21:58:24;94661.38;;;25.29;74.89
45941;BME280;31858;46.008;8.978;2022-07-23T22:08:26;94676.44;;;25.16;74.60
45941;BME280;31858;46.008;8.978;2022-07-23T22:18:29;94683.31;;;25.02;73.92
45941;BME280;31858;46.008;8.978;2022-07-23T22:28:31;94674.56;;;24.98;77.96
45941;BME280;31858;46.008;8.978;2022-07-23T22:38:34;94683.75;;;24.67;79.68
45941;BME280;31858;46.008;8.978;2022-07-23T22:48:35;94672.63;;;24.38;80.58
45941;BME280;31858;46.008;8.978;2022-07-23T22:58:38;94667.94;;;24.20;82.92
45941;BME280;31858;46.008;8.978;2022-07-23T23:08:40;94666.28;;;24.04;87.37
45941;BME280;31858;46.008;8.978;2022-07-23T23:18:43;94661.31;;;23.94;87.69
45941;BME280;31858;46.008;8.978;2022-07-23T23:28:44;94664.47;;;23.92;92.17
45941;BME280;31858;46.008;8.978;2022-07-23T23:38:47;94658.88;;;23.87;100.00
45941;BME280;31858;46.008;8.978;2022-07-23T23:48:49;94675.66;;;23.85;100.00
45941;BME280;31858;46.008;8.978;2022-07-23T23:58:52;94679.28;;;23.82;100.00
